Time;durP1;ratioP1;P1;durP2;ratioP2;P2;SDS_P1;SDS_P2;PMS_P1;PMS_P2;Temp;Humidity;BMP_temperature;BMP_pressure;BME280_temperature;BME280_humidity;BME280_pressure;Samples;Min_cycle;Max_cycle;Signal;HPM_P1;HPM_P2
2023/04/17 00:01:16;;;;;;;14.45;12.98;;;;;;;;;;5083769;28;20242;-68
2023/04/17 00:03:43;;;;;;;13.23;11.93;;;;;;;;;;5083626;28;20220;-68
2023/04/17 00:06:12;;;;;;;14.23;12.38;;;;;;;;;;5083816;28;20202;-68
2023/04/17 00:08:39;;;;;;;14.50;12.32;;;;;;;;;;5083762;28;20527;-68
2023/04/17 00:11:05;;;;;;;13.85;12.43;;;;;;;;;;5083574;28;20193;-68
2023/04/17 00:13:31;;;;;;;13.63;12.23;;;;;;;;;;5083191;28;20212;-68
2023/04/17 00:15:57;;;;;;;12.80;11.50;;;;;;;;;;5083817;28;20200;-68
2023/04/17 00:18:24;;;;;;;14.25;12.73;;;;;;;;;;5083634;28;20200;-68
2023/04/17 00:20:50;;;;;;;15.90;13.25;;;;;;;;;;5083502;28;20204;-68
2023/04/17 00:23:17;;;;;;;15.82;12.80;;;;;;;;;;5083161;28;20213;-68
2023/04/17 00:25:44;;;;;;;14.10;12.60;;;;;;;;;;5083384;28;20204;-68
2023/04/17 00:28:10;;;;;;;14.63;12.98;;;;;;;;;;5083046;28;20216;-68
2023/04/17 00:30:36;;;;;;;14.75;13.15;;;;;;;;;;5083242;28;20196;-68
2023/04/17 00:33:02;;;;;;;14.65;12.85;;;;;;;;;;5082640;28;20199;-68
2023/04/17 00:35:29;;;;;;;14.95;12.60;;;;;;;;;;5083142;28;20242;-68
2023/04/17 00:37:55;;;;;;;14.45;12.75;;;;;;;;;;5083257;28;20211;-68
2023/04/17 00:40:22;;;;;;;14.23;12.73;;;;;;;;;;5083063;28;20242;-68
2023/04/17 00:42:51;;;;;;;14.07;12.57;;;;;;;;;;5082703;28;20228;-68
2023/04/17 00:45:18;;;;;;;15.68;13.73;;;;;;;;;;5083080;28;20257;-68
2023/04/17 00:47:44;;;;;;;14.02;12.52;;;;;;;;;;5082942;28;20204;-68
2023/04/17 00:50:11;;;;;;;14.93;12.73;;;;;;;;;;5082882;28;20196;-68
2023/04/17 00:52:37;;;;;;;17.02;13.45;;;;;;;;;;5083011;28;20203;-68
2023/04/17 00:55:04;;;;;;;16.05;13.48;;;;;;;;;;5082746;28;20242;-68
2023/04/17 00:57:31;;;;;;;14.80;13.23;;;;;;;;;;5082796;28;20438;-68
2023/04/17 00:59:57;;;;;;;15.00;13.45;;;;;;;;;;5082805;28;20365;-68
2023/04/17 01:02:24;;;;;;;16.08;13.65;;;;;;;;;;5082611;28;20332;-68
2023/04/17 01:04:50;;;;;;;14.88;13.20;;;;;;;;;;5082622;28;20220;-68
2023/04/17 01:07:16;;;;;;;16.88;13.63;;;;;;;;;;5082533;28;20250;-68
2023/04/17 01:09:43;;;;;;;15.75;13.63;;;;;;;;;;5082290;28;20196;-68
2023/04/17 01:12:15;;;;;;;15.73;13.25;;;;;;;;;;5082511;28;20196;-68
2023/04/17 01:14:43;;;;;;;16.95;13.48;;;;;;;;;;5082359;28;20253;-68
2023/04/17 01:17:09;;;;;;;14.88;13.30;;;;;;;;;;5082483;28;20272;-68
2023/04/17 01:19:36;;;;;;;19.05;14.63;;;;;;;;;;5082394;28;20241;-68
2023/04/17 01:22:02;;;;;;;16.73;14.13;;;;;;;;;;5081748;28;20519;-68
2023/04/17 01:24:30;;;;;;;17.45;15.30;;;;;;;;;;5082474;28;20220;-68
2023/04/17 01:26:56;;;;;;;18.98;14.93;;;;;;;;;;5082091;28;20196;-68
2023/04/17 01:29:23;;;;;;;15.43;13.82;;;;;;;;;;5082325;28;20456;-68
2023/04/17 01:31:49;;;;;;;17.00;14.63;;;;;;;;;;5082172;28;20499;-68
2023/04/17 01:34:15;;;;;;;17.40;14.00;;;;;;;;;;5081913;28;20231;-68
2023/04/17 01:36:42;;;;;;;15.63;13.32;;;;;;;;;;5082064;28;20267;-68
2023/04/17 01:39:08;;;;;;;17.58;13.95;;;;;;;;;;5082366;28;20242;-68
2023/04/17 01:41:35;;;;;;;16.92;13.57;;;;;;;;;;5082151;28;20246;-68
2023/04/17 01:44:02;;;;;;;17.23;13.52;;;;;;;;;;5080984;28;20224;-68
2023/04/17 01:46:28;;;;;;;17.88;14.10;;;;;;;;;;5082109;28;20203;-68
2023/04/17 01:48:54;;;;;;;17.35;13.73;;;;;;;;;;5081885;28;20242;-68
2023/04/17 01:51:21;;;;;;;14.88;13.27;;;;;;;;;;5082196;28;20196;-68
2023/04/17 01:53:47;;;;;;;18.48;13.68;;;;;;;;;;5082026;28;20419;-68
2023/04/17 01:56:13;;;;;;;16.45;14.07;;;;;;;;;;5082046;28;20496;-68
2023/04/17 01:58:41;;;;;;;14.95;13.27;;;;;;;;;;5081974;28;20219;-68
2023/04/17 02:01:08;;;;;;;18.85;13.63;;;;;;;;;;5081888;28;20193;-68
2023/04/17 02:03:34;;;;;;;15.02;13.43;;;;;;;;;;5081705;28;20221;-68
2023/04/17 02:06:00;;;;;;;15.68;13.73;;;;;;;;;;5082091;28;20208;-68
2023/04/17 02:08:26;;;;;;;16.38;13.82;;;;;;;;;;5081965;28;20234;-68
2023/04/17 02:10:53;;;;;;;17.65;14.13;;;;;;;;;;5081893;28;20353;-68
2023/04/17 02:13:19;;;;;;;16.10;13.90;;;;;;;;;;5081519;28;20200;-68
2023/04/17 02:15:47;;;;;;;16.42;13.27;;;;;;;;;;5081750;28;20197;-68
2023/04/17 02:18:13;;;;;;;17.08;13.13;;;;;;;;;;5081806;28;20223;-68
2023/04/17 02:20:39;;;;;;;15.13;13.00;;;;;;;;;;5082030;28;20373;-68
2023/04/17 02:23:06;;;;;;;16.48;13.60;;;;;;;;;;5081640;28;20367;-68
2023/04/17 02:25:33;;;;;;;18.83;13.77;;;;;;;;;;5081753;28;20424;-68
2023/04/17 02:27:59;;;;;;;18.00;13.90;;;;;;;;;;5081681;28;20263;-68
2023/04/17 02:30:26;;;;;;;16.83;14.02;;;;;;;;;;5081572;28;20368;-68
2023/04/17 02:32:54;;;;;;;16.38;13.25;;;;;;;;;;5081641;28;20242;-68
2023/04/17 02:35:21;;;;;;;15.38;13.70;;;;;;;;;;5081535;28;20192;-68
2023/04/17 02:37:47;;;;;;;15.60;13.45;;;;;;;;;;5081703;28;20201;-68
2023/04/17 02:40:14;;;;;;;15.90;13.15;;;;;;;;;;5081348;28;20192;-68
2023/04/17 02:42:40;;;;;;;16.73;14.05;;;;;;;;;;5081402;28;20196;-68
2023/04/17 02:45:07;;;;;;;15.52;13.73;;;;;;;;;;5081352;28;20224;-68
2023/04/17 02:47:33;;;;;;;16.15;13.50;;;;;;;;;;5081626;28;20216;-68
2023/04/17 02:50:01;;;;;;;16.00;13.88;;;;;;;;;;5081547;28;20200;-68
2023/04/17 02:52:27;;;;;;;17.13;13.98;;;;;;;;;;5081418;28;20223;-68
2023/04/17 02:54:55;;;;;;;16.58;13.55;;;;;;;;;;5081463;28;20263;-68
2023/04/17 02:57:21;;;;;;;17.58;14.60;;;;;;;;;;5084875;28;20550;-68
2023/04/17 02:59:47;;;;;;;15.02;13.38;;;;;;;;;;5084894;28;20550;-68
2023/04/17 03:02:14;;;;;;;16.17;13.43;;;;;;;;;;5084683;28;20219;-68
2023/04/17 03:04:40;;;;;;;16.02;14.13;;;;;;;;;;5085203;28;20345;-68
2023/04/17 03:07:09;;;;;;;18.02;14.95;;;;;;;;;;5084899;28;20196;-68
2023/04/17 03:09:35;;;;;;;19.80;14.80;;;;;;;;;;5084799;28;20196;-68
2023/04/17 03:12:01;;;;;;;16.65;13.57;;;;;;;;;;5084601;28;20204;-68
2023/04/17 03:14:28;;;;;;;17.65;14.27;;;;;;;;;;5084442;28;20253;-68
2023/04/17 03:16:54;;;;;;;15.88;14.13;;;;;;;;;;5084856;28;20195;-68
2023/04/17 03:19:20;;;;;;;19.70;15.75;;;;;;;;;;5084566;28;20203;-68
2023/04/17 03:21:46;;;;;;;20.65;15.38;;;;;;;;;;5084870;28;20242;-68
2023/04/17 03:24:14;;;;;;;19.30;15.35;;;;;;;;;;5084160;28;20212;-68
2023/04/17 03:26:40;;;;;;;19.27;15.80;;;;;;;;;;5084366;28;20538;-68
2023/04/17 03:29:06;;;;;;;18.30;14.75;;;;;;;;;;5084490;28;20228;-68
2023/04/17 03:31:33;;;;;;;17.90;14.85;;;;;;;;;;5084301;28;20235;-68
2023/04/17 03:33:59;;;;;;;17.95;15.40;;;;;;;;;;5084341;28;20196;-68
2023/04/17 03:36:25;;;;;;;18.27;15.77;;;;;;;;;;5084324;28;20196;-68
2023/04/17 03:38:52;;;;;;;16.98;15.18;;;;;;;;;;5084193;28;20204;-68
2023/04/17 03:41:19;;;;;;;17.63;14.73;;;;;;;;;;5084186;28;20249;-68
2023/04/17 03:43:46;;;;;;;19.63;16.30;;;;;;;;;;5084190;28;20220;-68
2023/04/17 03:46:12;;;;;;;18.55;15.65;;;;;;;;;;5084277;28;20200;-68
2023/04/17 03:48:38;;;;;;;16.50;14.45;;;;;;;;;;5084033;28;20205;-68
2023/04/17 03:51:04;;;;;;;18.60;14.80;;;;;;;;;;5083938;28;20196;-68
2023/04/17 03:53:31;;;;;;;18.48;15.15;;;;;;;;;;5084087;28;20196;-68
2023/04/17 03:55:57;;;;;;;21.88;15.35;;;;;;;;;;5083858;28;20283;-68
2023/04/17 03:58:24;;;;;;;17.25;14.68;;;;;;;;;;5084176;28;20500;-68
2023/04/17 04:00:54;;;;;;;17.35;15.23;;;;;;;;;;5083774;28;20421;-68
2023/04/17 04:03:20;;;;;;;17.80;15.00;;;;;;;;;;5083613;28;20196;-68
2023/04/17 04:05:46;;;;;;;18.10;15.57;;;;;;;;;;5083679;28;20254;-68
2023/04/17 04:08:13;;;;;;;19.17;15.05;;;;;;;;;;5082758;28;20250;-68
2023/04/17 04:10:39;;;;;;;19.88;15.85;;;;;;;;;;5083833;28;20200;-68
2023/04/17 04:13:05;;;;;;;20.20;15.65;;;;;;;;;;5083565;28;20204;-68
2023/04/17 04:15:33;;;;;;;18.23;15.90;;;;;;;;;;5083833;28;20426;-68
2023/04/17 04:17:59;;;;;;;20.45;15.77;;;;;;;;;;5083936;28;20200;-68
2023/04/17 04:20:25;;;;;;;18.85;15.68;;;;;;;;;;5083453;28;20507;-68
2023/04/17 04:22:52;;;;;;;20.90;16.00;;;;;;;;;;5083183;28;20200;-68
2023/04/17 04:25:19;;;;;;;20.40;15.57;;;;;;;;;;5083498;28;20229;-68
2023/04/17 04:27:48;;;;;;;25.25;17.02;;;;;;;;;;5083454;28;20283;-68
2023/04/17 04:30:15;;;;;;;20.92;16.40;;;;;;;;;;5083380;28;20249;-68
2023/04/17 04:32:44;;;;;;;17.65;14.77;;;;;;;;;;5083490;28;20242;-68
2023/04/17 04:35:10;;;;;;;20.08;16.42;;;;;;;;;;5083207;28;20200;-68
2023/04/17 04:37:37;;;;;;;19.10;16.08;;;;;;;;;;5082947;28;20223;-68
2023/04/17 04:40:09;;;;;;;23.85;16.42;;;;;;;;;;5083325;28;20201;-68
2023/04/17 04:42:35;;;;;;;18.50;16.42;;;;;;;;;;5082851;28;20263;-68
2023/04/17 04:45:01;;;;;;;21.75;17.25;;;;;;;;;;5082930;28;20216;-68
2023/04/17 04:47:28;;;;;;;22.33;17.23;;;;;;;;;;5083044;28;20196;-68
2023/04/17 04:49:55;;;;;;;20.40;16.77;;;;;;;;;;5082892;28;20250;-68
2023/04/17 04:52:21;;;;;;;19.75;16.50;;;;;;;;;;5082527;28;20257;-68
2023/04/17 04:54:48;;;;;;;21.45;17.05;;;;;;;;;;5082903;28;20200;-68
2023/04/17 04:57:14;;;;;;;21.80;17.42;;;;;;;;;;5082927;28;20204;-68
2023/04/17 04:59:40;;;;;;;20.65;17.17;;;;;;;;;;5082731;28;20261;-68
2023/04/17 05:02:07;;;;;;;22.88;16.60;;;;;;;;;;5082547;28;20234;-68
2023/04/17 05:04:33;;;;;;;19.52;17.08;;;;;;;;;;5082543;28;20219;-68
2023/04/17 05:07:00;;;;;;;21.25;16.90;;;;;;;;;;5082764;28;20249;-68
2023/04/17 05:09:27;;;;;;;22.95;16.70;;;;;;;;;;5082455;28;20246;-68
2023/04/17 05:11:53;;;;;;;20.20;15.93;;;;;;;;;;5082482;28;20427;-68
2023/04/17 05:14:19;;;;;;;19.00;15.20;;;;;;;;;;5082315;28;20200;-68
2023/04/17 05:16:46;;;;;;;20.95;16.48;;;;;;;;;;5082502;28;20200;-68
2023/04/17 05:19:12;;;;;;;20.63;16.13;;;;;;;;;;5082432;28;20234;-68
2023/04/17 05:21:38;;;;;;;20.73;17.42;;;;;;;;;;5082664;28;20196;-68
2023/04/17 05:24:06;;;;;;;20.00;16.00;;;;;;;;;;5082342;28;20196;-68
2023/04/17 05:26:32;;;;;;;20.77;16.15;;;;;;;;;;5082651;28;20200;-68
2023/04/17 05:28:59;;;;;;;21.95;16.42;;;;;;;;;;5082346;28;20220;-68
2023/04/17 05:31:25;;;;;;;21.05;16.92;;;;;;;;;;5082210;28;20267;-68
2023/04/17 05:33:52;;;;;;;22.50;15.75;;;;;;;;;;5081997;28;20242;-69
2023/04/17 05:36:18;;;;;;;19.38;16.10;;;;;;;;;;5082302;28;20188;-69
2023/04/17 05:38:44;;;;;;;21.65;16.38;;;;;;;;;;5082422;28;20207;-69
2023/04/17 05:41:12;;;;;;;17.52;15.07;;;;;;;;;;5082077;28;20208;-69
2023/04/17 05:43:38;;;;;;;20.73;14.75;;;;;;;;;;5081873;28;20200;-69
2023/04/17 05:46:04;;;;;;;19.92;15.52;;;;;;;;;;5081860;28;20246;-69
2023/04/17 05:48:31;;;;;;;19.08;15.63;;;;;;;;;;5082021;28;20192;-69
2023/04/17 05:50:57;;;;;;;19.15;15.80;;;;;;;;;;5082065;28;20196;-69
2023/04/17 05:53:23;;;;;;;21.52;15.70;;;;;;;;;;5081789;28;20200;-69
2023/04/17 05:55:50;;;;;;;20.80;15.68;;;;;;;;;;5081917;28;20230;-69
2023/04/17 05:58:17;;;;;;;20.02;15.65;;;;;;;;;;5081952;28;20309;-69
2023/04/17 06:00:44;;;;;;;20.13;15.93;;;;;;;;;;5081944;28;20203;-68
2023/04/17 06:03:10;;;;;;;19.33;16.02;;;;;;;;;;5082058;28;20196;-68
2023/04/17 06:05:37;;;;;;;21.90;16.80;;;;;;;;;;5082224;28;20269;-68
2023/04/17 06:08:03;;;;;;;18.80;16.05;;;;;;;;;;5081995;28;20226;-68
2023/04/17 06:10:32;;;;;;;19.17;16.05;;;;;;;;;;5081791;28;20196;-68
2023/04/17 06:12:59;;;;;;;21.27;16.88;;;;;;;;;;5079713;28;20204;-69
2023/04/17 06:15:27;;;;;;;20.65;17.35;;;;;;;;;;5073068;28;20208;-68
2023/04/17 06:17:53;;;;;;;21.52;16.38;;;;;;;;;;5076509;28;20212;-68
2023/04/17 06:20:19;;;;;;;22.15;16.95;;;;;;;;;;5076585;28;20208;-68
2023/04/17 06:22:46;;;;;;;19.30;15.73;;;;;;;;;;5075845;28;20247;-69
2023/04/17 06:25:13;;;;;;;19.95;15.75;;;;;;;;;;5072618;28;20295;-69
2023/04/17 06:27:39;;;;;;;18.85;15.73;;;;;;;;;;5073273;28;20327;-69
2023/04/17 06:30:06;;;;;;;21.65;15.88;;;;;;;;;;5072759;28;20219;-69
2023/04/17 06:32:34;;;;;;;18.48;14.50;;;;;;;;;;5073213;28;20216;-69
2023/04/17 06:35:00;;;;;;;18.27;15.10;;;;;;;;;;5073464;28;20217;-69
2023/04/17 06:37:26;;;;;;;18.25;14.13;;;;;;;;;;5078758;28;20314;-69
2023/04/17 06:39:53;;;;;;;17.70;14.00;;;;;;;;;;5078161;28;20217;-68
2023/04/17 06:42:19;;;;;;;17.65;14.52;;;;;;;;;;5077616;28;20481;-69
2023/04/17 06:44:45;;;;;;;16.02;13.82;;;;;;;;;;5077914;28;20562;-69
2023/04/17 06:47:11;;;;;;;18.05;13.50;;;;;;;;;;5078310;28;20212;-68
2023/04/17 06:49:39;;;;;;;16.63;13.80;;;;;;;;;;5078891;28;20212;-69
2023/04/17 06:52:05;;;;;;;15.30;13.57;;;;;;;;;;5079622;28;20293;-69
2023/04/17 06:54:31;;;;;;;15.13;13.52;;;;;;;;;;5079780;28;20450;-69
2023/04/17 06:56:58;;;;;;;16.15;13.82;;;;;;;;;;5079684;28;20209;-69
2023/04/17 06:59:24;;;;;;;17.88;14.18;;;;;;;;;;5079656;28;20334;-69
2023/04/17 07:01:50;;;;;;;17.83;14.68;;;;;;;;;;5080309;28;20585;-69
2023/04/17 07:04:19;;;;;;;14.75;13.15;;;;;;;;;;5079805;28;20265;-69
2023/04/17 07:06:47;;;;;;;16.67;12.57;;;;;;;;;;5079894;28;20238;-69
2023/04/17 07:09:13;;;;;;;14.27;12.82;;;;;;;;;;5079467;28;20280;-69
2023/04/17 07:11:39;;;;;;;15.68;12.95;;;;;;;;;;5079359;28;20397;-69
2023/04/17 07:14:05;;;;;;;14.30;12.80;;;;;;;;;;5078990;28;20219;-69
2023/04/17 07:16:32;;;;;;;16.52;13.27;;;;;;;;;;5079575;28;20403;-69
2023/04/17 07:18:58;;;;;;;13.48;12.05;;;;;;;;;;5079304;28;20215;-69
2023/04/17 07:21:25;;;;;;;14.02;11.65;;;;;;;;;;5079623;28;20200;-69
2023/04/17 07:23:53;;;;;;;12.57;11.25;;;;;;;;;;5079081;28;20212;-68
2023/04/17 07:26:19;;;;;;;12.15;10.95;;;;;;;;;;5079360;28;20228;-68
2023/04/17 07:28:45;;;;;;;11.80;10.68;;;;;;;;;;5079569;28;20225;-68
2023/04/17 07:31:12;;;;;;;12.82;10.90;;;;;;;;;;5083776;28;20192;-68
2023/04/17 07:33:38;;;;;;;12.20;10.35;;;;;;;;;;5084276;28;20238;-68
2023/04/17 07:36:05;;;;;;;11.80;10.60;;;;;;;;;;5084544;28;20191;-68
2023/04/17 07:38:31;;;;;;;13.73;10.73;;;;;;;;;;5084542;28;20200;-68
2023/04/17 07:40:59;;;;;;;11.68;10.48;;;;;;;;;;5084409;28;20200;-68
2023/04/17 07:43:25;;;;;;;12.13;10.93;;;;;;;;;;5083200;28;20463;-68
2023/04/17 07:45:51;;;;;;;12.65;10.88;;;;;;;;;;5084523;28;20442;-68
2023/04/17 07:48:18;;;;;;;11.93;10.63;;;;;;;;;;5084572;28;20200;-68
2023/04/17 07:50:44;;;;;;;12.90;11.07;;;;;;;;;;5084434;28;20500;-68
2023/04/17 07:53:11;;;;;;;11.68;10.30;;;;;;;;;;5083831;28;20201;-69
2023/04/17 07:55:37;;;;;;;12.30;10.57;;;;;;;;;;5084005;28;20429;-69
2023/04/17 07:58:05;;;;;;;13.23;11.02;;;;;;;;;;5083906;28;20219;-69
2023/04/17 08:00:31;;;;;;;15.20;11.43;;;;;;;;;;5084037;28;20207;-69
2023/04/17 08:02:58;;;;;;;14.80;10.75;;;;;;;;;;5083938;28;20205;-69
2023/04/17 08:05:24;;;;;;;12.45;9.75;;;;;;;;;;5083901;28;20257;-69
2023/04/17 08:07:50;;;;;;;11.15;9.98;;;;;;;;;;5083802;28;20258;-68
2023/04/17 08:10:16;;;;;;;10.05;9.05;;;;;;;;;;5084501;28;20428;-68
2023/04/17 08:12:43;;;;;;;10.38;9.30;;;;;;;;;;5083865;28;20210;-68
2023/04/17 08:15:11;;;;;;;10.27;9.25;;;;;;;;;;5084078;28;20196;-69
2023/04/17 08:17:37;;;;;;;12.05;9.60;;;;;;;;;;5083787;28;20196;-68
2023/04/17 08:20:06;;;;;;;11.07;8.75;;;;;;;;;;5083864;28;20196;-68
2023/04/17 08:22:38;;;;;;;8.07;7.38;;;;;;;;;;5083371;28;20197;-68
2023/04/17 08:25:08;;;;;;;9.00;8.10;;;;;;;;;;5083749;28;20242;-69
2023/04/17 08:27:34;;;;;;;8.48;7.65;;;;;;;;;;5084079;28;20386;-70
2023/04/17 08:30:00;;;;;;;8.95;7.70;;;;;;;;;;5083641;28;20197;-70
2023/04/17 08:32:28;;;;;;;7.85;7.07;;;;;;;;;;5083224;28;20197;-68
2023/04/17 08:34:54;;;;;;;7.97;7.18;;;;;;;;;;5083587;28;20200;-69
2023/04/17 08:37:20;;;;;;;7.68;6.97;;;;;;;;;;5083242;28;20200;-69
2023/04/17 08:39:51;;;;;;;8.85;7.95;;;;;;;;;;5083540;28;20532;-69
2023/04/17 08:42:17;;;;;;;7.63;6.93;;;;;;;;;;5082972;28;20429;-69
2023/04/17 08:44:43;;;;;;;8.25;7.45;;;;;;;;;;5083240;28;20530;-69
2023/04/17 08:47:11;;;;;;;8.95;8.05;;;;;;;;;;5083016;28;20220;-69
2023/04/17 08:49:42;;;;;;;9.57;7.38;;;;;;;;;;5083165;28;20426;-69
2023/04/17 08:52:08;;;;;;;8.00;6.90;;;;;;;;;;5082943;28;20488;-69
2023/04/17 08:54:36;;;;;;;7.78;7.07;;;;;;;;;;5082576;28;20228;-70
2023/04/17 08:57:03;;;;;;;6.70;6.10;;;;;;;;;;5082995;28;20224;-70
2023/04/17 08:59:30;;;;;;;7.07;6.47;;;;;;;;;;5082880;28;20196;-69
2023/04/17 09:02:00;;;;;;;6.53;6.03;;;;;;;;;;5082820;28;20496;-69
2023/04/17 09:04:34;;;;;;;6.97;6.38;;;;;;;;;;5082830;28;20564;-69
2023/04/17 09:07:02;;;;;;;6.60;6.10;;;;;;;;;;5083237;28;20216;-69
2023/04/17 09:09:45;;;;;;;6.40;5.93;;;;;;;;;;5082755;28;20196;-69
2023/04/17 09:12:12;;;;;;;6.40;5.88;;;;;;;;;;5082628;28;20257;-69
2023/04/17 09:14:38;;;;;;;6.13;5.63;;;;;;;;;;5082425;28;20249;-69
2023/04/17 09:17:04;;;;;;;6.35;5.68;;;;;;;;;;5082413;28;20196;-69
2023/04/17 09:19:31;;;;;;;6.35;5.25;;;;;;;;;;5082641;28;20196;-69
2023/04/17 09:21:57;;;;;;;5.75;5.25;;;;;;;;;;5081741;28;20188;-69
2023/04/17 09:24:34;;;;;;;5.38;4.97;;;;;;;;;;5081879;28;20192;-69
2023/04/17 09:27:19;;;;;;;5.10;4.80;;;;;;;;;;5081806;28;20218;-69
2023/04/17 09:29:54;;;;;;;5.35;4.95;;;;;;;;;;5082009;28;20192;-69
2023/04/17 09:32:20;;;;;;;5.13;4.72;;;;;;;;;;5082109;28;20269;-69
2023/04/17 09:34:47;;;;;;;4.78;4.47;;;;;;;;;;5079425;28;20192;-69
2023/04/17 09:37:13;;;;;;;5.53;5.13;;;;;;;;;;5081992;28;20202;-69
2023/04/17 09:39:54;;;;;;;4.82;4.53;;;;;;;;;;5081726;28;20306;-69
2023/04/17 09:42:20;;;;;;;5.35;4.85;;;;;;;;;;5081017;28;20201;-69
2023/04/17 09:44:47;;;;;;;5.57;5.15;;;;;;;;;;5082049;28;20196;-69
2023/04/17 09:47:14;;;;;;;5.65;5.15;;;;;;;;;;5081791;28;20214;-69
2023/04/17 09:49:43;;;;;;;4.53;4.22;;;;;;;;;;5081811;28;20228;-69
2023/04/17 09:52:10;;;;;;;4.72;4.38;;;;;;;;;;5081612;28;20188;-69
2023/04/17 09:54:38;;;;;;;3.10;3.00;;;;;;;;;;5081779;28;20272;-69
2023/04/17 09:57:07;;;;;;;2.75;2.60;;;;;;;;;;5082053;28;20188;-68
2023/04/17 09:59:34;;;;;;;2.63;2.53;;;;;;;;;;5071035;28;20200;-68
2023/04/17 10:02:00;;;;;;;2.95;2.80;;;;;;;;;;5072755;28;20197;-68
2023/04/17 10:04:28;;;;;;;2.92;2.55;;;;;;;;;;5079915;28;20210;-68
2023/04/17 10:06:56;;;;;;;3.90;3.70;;;;;;;;;;5085283;28;20894;-68
2023/04/17 10:09:22;;;;;;;3.97;3.78;;;;;;;;;;5086158;28;20188;-68
2023/04/17 10:11:49;;;;;;;4.38;4.07;;;;;;;;;;5086166;28;20196;-68
2023/04/17 10:14:19;;;;;;;5.10;4.70;;;;;;;;;;5085800;28;20249;-68
2023/04/17 10:16:46;;;;;;;5.18;4.78;;;;;;;;;;5085995;28;20531;-69
2023/04/17 10:19:29;;;;;;;4.90;4.40;;;;;;;;;;5085731;28;20208;-69
2023/04/17 10:22:10;;;;;;;5.13;4.82;;;;;;;;;;5086018;28;20197;-69
2023/04/17 10:24:37;;;;;;;4.45;4.20;;;;;;;;;;5087600;28;20204;-69
2023/04/17 10:27:26;;;;;;;5.30;4.93;;;;;;;;;;5085867;28;20528;-69
2023/04/17 10:29:54;;;;;;;5.10;4.70;;;;;;;;;;5086044;28;20228;-70
2023/04/17 10:32:22;;;;;;;5.88;5.47;;;;;;;;;;5085939;28;20200;-70
2023/04/17 10:34:49;;;;;;;6.15;5.65;;;;;;;;;;5086037;28;20212;-70
2023/04/17 10:37:15;;;;;;;7.85;6.07;;;;;;;;;;5086177;28;20195;-62
2023/04/17 10:39:56;;;;;;;6.80;6.10;;;;;;;;;;5086291;28;20234;-62
2023/04/17 10:42:23;;;;;;;7.70;7.00;;;;;;;;;;5074183;28;20200;-62
2023/04/17 10:44:50;;;;;;;8.32;7.53;;;;;;;;;;5075430;28;20246;-61
2023/04/17 10:47:21;;;;;;;7.30;6.60;;;;;;;;;;5075766;28;20385;-61
2023/04/17 10:49:51;;;;;;;8.02;7.30;;;;;;;;;;5082805;28;20193;-62
2023/04/17 10:52:36;;;;;;;8.20;6.35;;;;;;;;;;5084644;28;20193;-62
2023/04/17 10:55:03;;;;;;;7.75;7.05;;;;;;;;;;5065596;28;20520;-62
2023/04/17 10:57:44;;;;;;;7.72;7.00;;;;;;;;;;5065492;28;20523;-62
2023/04/17 11:00:12;;;;;;;7.78;7.15;;;;;;;;;;5065263;28;20197;-62
2023/04/17 11:02:40;;;;;;;6.82;6.32;;;;;;;;;;5065053;28;20197;-60
2023/04/17 11:05:07;;;;;;;7.20;6.60;;;;;;;;;;5066400;28;20197;-60
2023/04/17 11:07:34;;;;;;;7.82;6.57;;;;;;;;;;5066340;28;20213;-60
2023/04/17 11:10:01;;;;;;;7.30;6.70;;;;;;;;;;5066404;28;20216;-60
2023/04/17 11:12:31;;;;;;;7.38;6.70;;;;;;;;;;5071158;28;20197;-60
2023/04/17 11:15:01;;;;;;;6.80;6.30;;;;;;;;;;5083018;28;20218;-60
2023/04/17 11:17:27;;;;;;;8.05;6.28;;;;;;;;;;5084913;28;20197;-60
2023/04/17 11:19:55;;;;;;;5.85;5.35;;;;;;;;;;5085729;28;20193;-60
2023/04/17 11:22:21;;;;;;;5.57;5.18;;;;;;;;;;5085095;28;20384;-60
2023/04/17 11:24:50;;;;;;;5.20;4.90;;;;;;;;;;5085668;28;20414;-60
2023/04/17 11:27:16;;;;;;;5.15;4.75;;;;;;;;;;5082619;28;20519;-60
2023/04/17 11:29:44;;;;;;;4.70;4.40;;;;;;;;;;5084966;28;20192;-60
2023/04/17 11:32:10;;;;;;;5.40;4.97;;;;;;;;;;5085134;28;20264;-60
2023/04/17 11:34:37;;;;;;;5.18;4.88;;;;;;;;;;5085649;28;20195;-60
2023/04/17 11:37:04;;;;;;;5.95;5.50;;;;;;;;;;5086151;28;20192;-60
2023/04/17 11:39:31;;;;;;;10.57;8.60;;;;;;;;;;5085576;28;20200;-59
2023/04/17 11:41:58;;;;;;;5.53;5.13;;;;;;;;;;5085850;28;20203;-59
2023/04/17 11:44:24;;;;;;;5.13;4.60;;;;;;;;;;5085499;28;20196;-60
2023/04/17 11:46:51;;;;;;;4.15;3.95;;;;;;;;;;5085621;28;20270;-60
2023/04/17 11:49:23;;;;;;;3.95;3.85;;;;;;;;;;5085498;28;20258;-60
2023/04/17 11:51:50;;;;;;;3.90;3.67;;;;;;;;;;5085518;28;20200;-60
2023/04/17 11:54:24;;;;;;;4.32;4.03;;;;;;;;;;5085058;28;20271;-60
2023/04/17 11:57:00;;;;;;;3.90;3.70;;;;;;;;;;5085288;28;20219;-60
2023/04/17 11:59:30;;;;;;;3.88;3.67;;;;;;;;;;5085248;28;20476;-59
2023/04/17 12:01:58;;;;;;;4.38;4.07;;;;;;;;;;5085394;28;20196;-60
2023/04/17 12:04:24;;;;;;;3.88;3.67;;;;;;;;;;5084813;28;20196;-60
2023/04/17 12:06:50;;;;;;;3.92;3.72;;;;;;;;;;5085209;28;20219;-59
2023/04/17 12:09:18;;;;;;;5.00;4.53;;;;;;;;;;5085038;28;20197;-60
2023/04/17 12:11:46;;;;;;;3.15;3.05;;;;;;;;;;5084768;28;20196;-60
2023/04/17 12:14:12;;;;;;;3.80;3.60;;;;;;;;;;5084718;28;20565;-60
2023/04/17 12:16:38;;;;;;;3.70;3.50;;;;;;;;;;5084924;28;20193;-60
2023/04/17 12:19:05;;;;;;;4.22;3.92;;;;;;;;;;5084829;28;20242;-60
2023/04/17 12:21:31;;;;;;;4.35;4.05;;;;;;;;;;5084499;28;20196;-60
2023/04/17 12:23:57;;;;;;;4.30;4.00;;;;;;;;;;5084201;28;20253;-60
2023/04/17 12:26:24;;;;;;;4.30;4.00;;;;;;;;;;5084217;28;20220;-60
2023/04/17 12:28:52;;;;;;;4.65;4.35;;;;;;;;;;5083680;28;20216;-60
2023/04/17 12:31:18;;;;;;;4.97;4.68;;;;;;;;;;5084407;28;20219;-60
2023/04/17 12:33:44;;;;;;;5.70;5.30;;;;;;;;;;5083837;28;20234;-60
2023/04/17 12:36:11;;;;;;;5.60;5.10;;;;;;;;;;5083732;28;20200;-60
2023/04/17 12:38:37;;;;;;;5.93;5.50;;;;;;;;;;5083968;28;20210;-59
2023/04/17 12:41:03;;;;;;;6.43;5.93;;;;;;;;;;5083809;28;20601;-61
2023/04/17 12:43:31;;;;;;;6.18;5.57;;;;;;;;;;5083692;28;20565;-60
2023/04/17 12:45:58;;;;;;;5.85;5.45;;;;;;;;;;5083861;28;20216;-60
2023/04/17 12:48:25;;;;;;;6.45;5.72;;;;;;;;;;5083690;28;20220;-61
2023/04/17 12:50:51;;;;;;;6.13;5.63;;;;;;;;;;5084007;28;20204;-60
2023/04/17 12:53:17;;;;;;;5.57;5.25;;;;;;;;;;5083842;28;20196;-60
2023/04/17 12:55:43;;;;;;;5.43;5.00;;;;;;;;;;5083325;28;20549;-60
2023/04/17 12:58:10;;;;;;;5.10;4.78;;;;;;;;;;5083734;28;20192;-60
2023/04/17 13:00:36;;;;;;;5.40;5.10;;;;;;;;;;5083399;28;20197;-60
2023/04/17 13:03:05;;;;;;;6.03;5.63;;;;;;;;;;5083214;28;20204;-60
2023/04/17 13:05:31;;;;;;;5.32;4.93;;;;;;;;;;5083484;28;20197;-60
2023/04/17 13:07:57;;;;;;;6.13;5.60;;;;;;;;;;5083131;28;20215;-60
2023/04/17 13:10:24;;;;;;;5.93;5.53;;;;;;;;;;5083495;28;20267;-60
2023/04/17 13:12:50;;;;;;;5.88;5.28;;;;;;;;;;5083133;28;20201;-60
2023/04/17 13:15:16;;;;;;;5.75;5.38;;;;;;;;;;5083241;28;20234;-60
2023/04/17 13:17:43;;;;;;;5.80;5.40;;;;;;;;;;5082948;28;20423;-60
2023/04/17 13:20:11;;;;;;;5.85;5.28;;;;;;;;;;5082845;28;20196;-60
2023/04/17 13:22:38;;;;;;;6.63;5.93;;;;;;;;;;5082462;28;20212;-60
2023/04/17 13:25:04;;;;;;;5.93;5.53;;;;;;;;;;5082913;28;20549;-60
2023/04/17 13:27:31;;;;;;;6.50;5.90;;;;;;;;;;5082632;28;20262;-60
2023/04/17 13:29:57;;;;;;;5.90;5.40;;;;;;;;;;5082549;28;20527;-59
2023/04/17 13:32:23;;;;;;;6.43;6.03;;;;;;;;;;5082418;28;20201;-59
2023/04/17 13:34:49;;;;;;;6.72;5.45;;;;;;;;;;5082691;28;20201;-59
2023/04/17 13:37:17;;;;;;;6.63;6.13;;;;;;;;;;5082677;28;20208;-60
2023/04/17 13:39:43;;;;;;;6.47;5.97;;;;;;;;;;5082764;28;20422;-60
2023/04/17 13:42:10;;;;;;;5.88;5.43;;;;;;;;;;5082712;28;20403;-60
2023/04/17 13:44:36;;;;;;;6.22;5.72;;;;;;;;;;5083241;28;20203;-60
2023/04/17 13:47:03;;;;;;;6.30;5.72;;;;;;;;;;5082885;28;20442;-60
2023/04/17 13:49:29;;;;;;;6.55;5.88;;;;;;;;;;5082479;28;20197;-60
2023/04/17 13:51:56;;;;;;;4.20;3.90;;;;;;;;;;5082687;28;20465;-60
2023/04/17 13:54:23;;;;;;;5.68;3.58;;;;;;;;;;5082614;28;20504;-60
2023/04/17 13:56:49;;;;;;;2.65;2.55;;;;;;;;;;5082814;28;20192;-60
2023/04/17 13:59:16;;;;;;;3.00;2.90;;;;;;;;;;5082586;28;20492;-60
2023/04/17 14:01:42;;;;;;;3.38;3.25;;;;;;;;;;5082459;28;20202;-60
2023/04/17 14:04:08;;;;;;;3.20;3.00;;;;;;;;;;5082070;28;20200;-59
2023/04/17 14:06:34;;;;;;;3.38;3.17;;;;;;;;;;5082396;28;20211;-59
2023/04/17 14:09:01;;;;;;;3.95;3.75;;;;;;;;;;5082117;28;20242;-59
2023/04/17 14:11:28;;;;;;;3.50;3.30;;;;;;;;;;5082435;28;20396;-60
2023/04/17 14:13:55;;;;;;;4.00;3.80;;;;;;;;;;5081979;28;20211;-59
2023/04/17 14:16:21;;;;;;;4.20;4.00;;;;;;;;;;5082042;28;20200;-59
2023/04/17 14:18:48;;;;;;;4.90;4.60;;;;;;;;;;5081630;28;20188;-60
2023/04/17 14:21:14;;;;;;;5.25;4.78;;;;;;;;;;5082124;28;20192;-60
2023/04/17 14:23:40;;;;;;;5.32;4.85;;;;;;;;;;5081881;28;20216;-60
2023/04/17 14:26:06;;;;;;;5.53;5.03;;;;;;;;;;5081963;28;20192;-60
2023/04/17 14:28:34;;;;;;;5.18;4.85;;;;;;;;;;5082202;28;20216;-60